createdAt,value
2018-06-13T00:02:01.000Z,18.80
2018-06-13T00:04:29.460Z,18.77
2018-06-13T00:06:57.864Z,18.55
2018-06-13T00:09:26.278Z,18.49
2018-06-13T00:11:54.761Z,18.52
2018-06-13T00:14:23.277Z,18.60
2018-06-13T00:16:51.738Z,18.76
2018-06-13T00:19:20.185Z,18.78
2018-06-13T00:21:48.603Z,18.69
2018-06-13T00:24:17.076Z,18.69
2018-06-13T00:26:45.508Z,18.76
2018-06-13T00:29:14.072Z,18.73
2018-06-13T00:31:42.532Z,18.81
2018-06-13T00:34:10.956Z,18.66
2018-06-13T00:36:39.379Z,18.68
2018-06-13T00:39:07.767Z,18.60
2018-06-13T00:41:36.221Z,18.57
2018-06-13T00:44:04.925Z,18.58
2018-06-13T00:46:33.628Z,18.65
2018-06-13T00:49:02.064Z,18.52
2018-06-13T00:51:30.505Z,18.56
2018-06-13T00:53:58.957Z,18.59
2018-06-13T00:56:32.367Z,18.57
2018-06-13T00:59:00.761Z,18.52
2018-06-13T01:01:29.240Z,18.53
2018-06-13T01:03:57.674Z,18.56
2018-06-13T01:06:26.711Z,18.54
2018-06-13T01:08:55.123Z,18.46
2018-06-13T01:11:23.596Z,18.55
2018-06-13T01:13:52.022Z,18.44
2018-06-13T01:16:20.475Z,18.39
2018-06-13T01:18:49.068Z,18.28
2018-06-13T01:21:17.716Z,18.27
2018-06-13T01:23:46.140Z,18.43
2018-06-13T01:26:14.583Z,18.59
2018-06-13T01:28:43.023Z,18.55
2018-06-13T01:31:11.509Z,18.51
2018-06-13T01:33:39.889Z,18.49
2018-06-13T01:36:08.374Z,18.34
2018-06-13T01:38:36.838Z,18.30
2018-06-13T01:41:05.318Z,18.29
2018-06-13T01:43:34.263Z,18.27
2018-06-13T01:46:02.680Z,18.29
2018-06-13T01:48:31.096Z,18.30
2018-06-13T01:51:00.030Z,18.40
2018-06-13T01:53:29.485Z,18.41
2018-06-13T01:55:58.027Z,18.23
2018-06-13T01:58:26.469Z,18.21
2018-06-13T02:00:55.251Z,18.26
2018-06-13T02:03:23.676Z,18.31
2018-06-13T02:05:52.128Z,18.40
2018-06-13T02:08:20.544Z,18.58
2018-06-13T02:10:48.959Z,18.40
2018-06-13T02:13:17.411Z,18.73
2018-06-13T02:15:45.865Z,18.71
2018-06-13T02:18:14.291Z,18.67
2018-06-13T02:20:42.711Z,18.60
2018-06-13T02:23:11.175Z,18.53
2018-06-13T02:25:39.604Z,18.47
2018-06-13T02:28:08.025Z,18.43
2018-06-13T02:30:36.465Z,18.65
2018-06-13T02:33:05.100Z,18.40
2018-06-13T02:35:33.523Z,18.56
2018-06-13T02:38:02.010Z,18.57
2018-06-13T02:40:30.539Z,18.64
2018-06-13T02:42:58.999Z,18.66
2018-06-13T02:45:27.408Z,18.64
2018-06-13T02:47:55.844Z,18.75
2018-06-13T02:50:24.320Z,18.95
2018-06-13T02:52:52.938Z,18.95
2018-06-13T02:55:21.468Z,19.00
2018-06-13T02:57:49.915Z,19.09
2018-06-13T03:00:18.324Z,19.06
2018-06-13T03:02:46.755Z,20.26
2018-06-13T03:05:15.264Z,20.54
2018-06-13T03:07:43.710Z,19.99
2018-06-13T03:10:12.379Z,19.31
2018-06-13T03:12:40.791Z,19.32
2018-06-13T03:15:09.224Z,19.81
2018-06-13T03:17:37.726Z,19.66
2018-06-13T03:20:06.162Z,19.44
2018-06-13T03:22:34.556Z,19.08
2018-06-13T03:25:03.438Z,18.75
2018-06-13T03:27:31.840Z,18.69
2018-06-13T03:30:00.496Z,18.91
2018-06-13T03:32:29.042Z,18.68
2018-06-13T03:34:57.447Z,18.75
2018-06-13T03:37:26.119Z,18.66
2018-06-13T03:39:54.791Z,18.77
2018-06-13T03:42:23.200Z,18.76
2018-06-13T03:44:51.615Z,18.84
2018-06-13T03:47:20.043Z,18.82
2018-06-13T03:49:48.496Z,18.84
2018-06-13T03:52:16.927Z,18.89
2018-06-13T03:54:45.375Z,18.82
2018-06-13T03:57:13.860Z,18.85
2018-06-13T03:59:42.262Z,18.96
2018-06-13T04:02:10.696Z,19.05
2018-06-13T04:04:39.192Z,19.10
2018-06-13T04:07:07.672Z,18.98
2018-06-13T04:11:05.470Z,19.11
2018-06-13T04:13:33.935Z,19.09
2018-06-13T04:16:02.461Z,18.97
2018-06-13T04:18:30.872Z,19.09
2018-06-13T04:20:59.325Z,19.14
2018-06-13T04:23:27.760Z,19.02
2018-06-13T04:25:56.212Z,19.03
2018-06-13T04:28:24.646Z,18.94
2018-06-13T04:30:54.272Z,18.86
2018-06-13T04:33:23.012Z,18.80
2018-06-13T04:35:51.437Z,19.09
2018-06-13T04:38:20.210Z,19.01
2018-06-13T04:40:48.670Z,19.09
2018-06-13T04:43:17.110Z,19.18
2018-06-13T04:45:45.859Z,19.09
2018-06-13T04:48:14.274Z,19.23
2018-06-13T04:50:42.988Z,19.09
2018-06-13T04:53:11.358Z,19.30
2018-06-13T04:55:39.760Z,19.20
2018-06-13T04:58:08.195Z,19.01
2018-06-13T05:00:36.731Z,19.09
2018-06-13T05:03:05.205Z,19.19
2018-06-13T05:05:33.684Z,19.25
2018-06-13T05:08:02.103Z,19.34
2018-06-13T05:10:30.557Z,19.36
2018-06-13T05:12:59.022Z,19.31
2018-06-13T05:15:27.510Z,19.41
2018-06-13T05:17:55.930Z,19.56
2018-06-13T05:20:24.382Z,19.26
2018-06-13T05:22:52.819Z,19.21
2018-06-13T05:25:21.252Z,19.44
2018-06-13T05:27:49.399Z,19.24
2018-06-13T05:30:17.827Z,19.59
2018-06-13T05:32:46.255Z,19.81
2018-06-13T05:35:14.668Z,19.33
2018-06-13T05:37:43.087Z,19.00
2018-06-13T05:40:11.522Z,19.26
2018-06-13T05:42:39.949Z,18.76
2018-06-13T05:45:08.416Z,18.37
2018-06-13T05:47:36.863Z,18.19
2018-06-13T05:50:05.286Z,18.13
2018-06-13T05:52:33.727Z,18.00
2018-06-13T05:55:02.244Z,18.30
2018-06-13T05:57:30.616Z,18.40
2018-06-13T05:59:59.011Z,18.46
2018-06-13T06:02:27.440Z,18.19
2018-06-13T06:04:55.827Z,18.84
2018-06-13T06:07:24.237Z,18.81
2018-06-13T06:09:52.668Z,18.99
2018-06-13T06:12:21.091Z,18.41
2018-06-13T06:14:49.519Z,18.73
2018-06-13T06:17:18.054Z,18.32
2018-06-13T06:19:46.438Z,18.36
2018-06-13T06:22:14.845Z,18.37
2018-06-13T06:24:43.280Z,18.40
2018-06-13T06:27:11.713Z,18.78
2018-06-13T06:29:40.120Z,18.66
2018-06-13T06:32:08.621Z,18.54
2018-06-13T06:34:37.115Z,18.91
2018-06-13T06:37:05.521Z,19.00
2018-06-13T06:39:33.976Z,18.61
2018-06-13T06:42:02.495Z,18.95
2018-06-13T06:44:30.893Z,18.71
2018-06-13T06:46:59.379Z,19.03
2018-06-13T06:49:27.784Z,19.11
2018-06-13T06:51:56.192Z,18.82
2018-06-13T06:54:24.685Z,18.30
2018-06-13T06:56:53.107Z,18.13
2018-06-13T06:59:21.543Z,17.94
2018-06-13T07:01:49.960Z,18.11
2018-06-13T07:04:18.543Z,18.21
2018-06-13T07:06:46.972Z,18.12
2018-06-13T07:09:15.433Z,18.24
2018-06-13T07:11:43.919Z,17.99
2018-06-13T07:14:12.368Z,18.33
2018-06-13T07:16:40.775Z,18.06
2018-06-13T07:19:09.203Z,18.41
2018-06-13T07:21:37.643Z,18.39
2018-06-13T07:24:06.204Z,18.04
2018-06-13T07:26:34.631Z,18.33
2018-06-13T07:29:03.086Z,18.24
2018-06-13T07:31:31.536Z,18.41
2018-06-13T07:33:59.983Z,17.88
2018-06-13T07:36:28.375Z,17.53
2018-06-13T07:38:56.786Z,17.73
2018-06-13T07:41:25.205Z,17.41
2018-06-13T07:43:53.868Z,18.02
2018-06-13T07:46:22.260Z,17.74
2018-06-13T07:48:50.672Z,17.75
2018-06-13T07:51:19.120Z,17.52
2018-06-13T07:53:47.547Z,17.43
2018-06-13T07:56:15.959Z,17.77
2018-06-13T07:58:44.363Z,17.44
2018-06-13T08:01:12.774Z,17.44
2018-06-13T08:03:41.227Z,17.35
2018-06-13T08:06:09.702Z,17.47
2018-06-13T08:08:38.327Z,17.26
2018-06-13T08:11:07.009Z,17.25
2018-06-13T08:13:35.624Z,17.52
2018-06-13T08:16:04.054Z,17.02
2018-06-13T08:18:32.451Z,17.33
2018-06-13T08:21:01.152Z,17.43
2018-06-13T08:23:29.841Z,17.81
2018-06-13T08:25:58.440Z,17.27
2018-06-13T08:28:26.911Z,17.36
2018-06-13T08:30:55.356Z,17.45
2018-06-13T08:33:23.807Z,17.46
2018-06-13T08:35:52.195Z,17.44
2018-06-13T08:38:20.627Z,17.44
2018-06-13T08:40:49.096Z,17.35
2018-06-13T08:43:17.557Z,17.43
2018-06-13T08:45:46.204Z,17.28
2018-06-13T08:48:14.636Z,17.51
2018-06-13T08:50:43.082Z,17.26
2018-06-13T08:53:11.529Z,17.64
2018-06-13T08:55:40.016Z,17.56
2018-06-13T08:58:08.446Z,17.76
2018-06-13T09:00:36.866Z,17.78
2018-06-13T09:03:05.347Z,18.04
2018-06-13T09:05:33.843Z,18.12
2018-06-13T09:08:02.263Z,18.27
2018-06-13T09:10:30.678Z,18.25
2018-06-13T09:12:59.631Z,18.23
2018-06-13T09:15:28.049Z,18.71
2018-06-13T09:17:56.416Z,17.96
2018-06-13T09:20:24.875Z,18.22
2018-06-13T09:22:53.334Z,18.35
2018-06-13T09:25:21.756Z,17.84
2018-06-13T09:27:50.184Z,18.55
2018-06-13T09:30:18.592Z,18.12
2018-06-13T09:32:47.027Z,18.43
2018-06-13T09:35:15.448Z,18.22
2018-06-13T09:37:43.965Z,18.81
2018-06-13T09:40:12.323Z,18.97
2018-06-13T09:42:40.753Z,18.75
2018-06-13T09:45:09.365Z,18.95
2018-06-13T09:47:37.821Z,18.70
2018-06-13T09:50:06.310Z,18.94
2018-06-13T09:52:34.740Z,18.94
2018-06-13T09:55:03.162Z,19.34
2018-06-13T09:57:31.595Z,19.49
2018-06-13T10:00:05.286Z,19.00
2018-06-13T10:02:37.336Z,19.29
2018-06-13T10:05:06.698Z,18.42
2018-06-13T10:07:35.130Z,19.16
2018-06-13T10:10:03.595Z,19.06
2018-06-13T10:12:32.040Z,18.83
2018-06-13T10:15:00.477Z,19.14
2018-06-13T10:17:28.855Z,18.90
2018-06-13T10:19:57.281Z,19.07
2018-06-13T10:22:25.663Z,19.02
2018-06-13T10:24:54.068Z,19.64
2018-06-13T10:27:27.654Z,19.13
2018-06-13T10:29:56.102Z,19.37
2018-06-13T10:32:24.507Z,19.47
2018-06-13T10:34:52.915Z,19.43
2018-06-13T10:37:21.311Z,19.53
2018-06-13T10:39:49.934Z,19.29
2018-06-13T10:42:18.357Z,19.67
2018-06-13T10:44:46.932Z,20.15
2018-06-13T10:47:15.352Z,19.61
2018-06-13T10:49:43.776Z,19.85
2018-06-13T10:52:12.493Z,19.32
2018-06-13T10:54:41.026Z,19.72
2018-06-13T10:57:09.411Z,19.30
2018-06-13T10:59:37.819Z,19.06
2018-06-13T11:02:06.659Z,18.69
2018-06-13T11:04:35.067Z,18.76
2018-06-13T11:07:03.517Z,18.57
2018-06-13T11:09:31.923Z,18.57
2018-06-13T11:12:00.307Z,18.45
2018-06-13T11:14:28.756Z,18.60
2018-06-13T11:16:57.204Z,18.54
2018-06-13T11:19:25.672Z,19.00
2018-06-13T11:21:54.079Z,18.32
2018-06-13T11:24:22.500Z,18.56
2018-06-13T11:26:50.947Z,19.34
2018-06-13T11:29:19.365Z,18.73
2018-06-13T11:31:48.657Z,18.77
2018-06-13T11:34:17.084Z,19.05
2018-06-13T11:36:45.448Z,18.59
2018-06-13T11:39:13.884Z,18.70
2018-06-13T11:41:42.292Z,18.89
2018-06-13T11:44:10.727Z,18.94
2018-06-13T11:46:39.371Z,18.96
2018-06-13T11:49:08.377Z,18.60
2018-06-13T11:51:37.554Z,18.50
2018-06-13T11:54:06.016Z,18.61
2018-06-13T11:56:34.456Z,18.54
2018-06-13T11:59:02.912Z,18.39
2018-06-13T12:01:31.348Z,18.26
2018-06-13T12:03:59.783Z,18.30
2018-06-13T12:06:28.687Z,18.10
2018-06-13T12:08:57.133Z,18.32
2018-06-13T12:11:25.558Z,17.92
2018-06-13T12:13:53.960Z,18.01
2018-06-13T12:16:22.385Z,18.00
2018-06-13T12:18:50.831Z,18.00
2018-06-13T12:21:19.347Z,17.92
2018-06-13T12:23:47.749Z,17.89
2018-06-13T12:26:16.156Z,18.08
2018-06-13T12:28:44.567Z,17.99
2018-06-13T12:31:13.056Z,17.60
2018-06-13T12:33:41.715Z,17.60
2018-06-13T12:36:10.400Z,17.50
2018-06-13T12:40:08.297Z,17.44
2018-06-13T12:42:36.747Z,17.20
2018-06-13T12:45:05.395Z,17.15
2018-06-13T12:47:33.824Z,17.07
2018-06-13T12:50:02.437Z,17.06
2018-06-13T12:52:30.867Z,17.08
2018-06-13T12:54:59.588Z,17.10
2018-06-13T12:57:27.998Z,16.86
2018-06-13T12:59:56.444Z,16.90
2018-06-13T13:02:24.836Z,16.91
2018-06-13T13:04:53.365Z,17.04
2018-06-13T13:07:21.781Z,17.36
2018-06-13T13:09:50.211Z,17.07
2018-06-13T13:12:18.649Z,17.08
2018-06-13T13:14:47.064Z,17.09
2018-06-13T13:17:15.487Z,17.16
2018-06-13T13:19:43.918Z,17.11
2018-06-13T13:22:12.604Z,17.20
2018-06-13T13:24:41.051Z,17.10
2018-06-13T13:27:09.485Z,17.46
2018-06-13T13:29:37.911Z,17.30
2018-06-13T13:32:06.574Z,16.99
2018-06-13T13:34:35.184Z,17.46
2018-06-13T13:37:03.590Z,17.12
2018-06-13T13:39:32.255Z,17.26
2018-06-13T13:42:00.704Z,17.23
2018-06-13T13:44:29.119Z,17.13
2018-06-13T13:46:57.572Z,17.10
2018-06-13T13:49:26.091Z,17.08
2018-06-13T13:51:54.718Z,17.09
2018-06-13T13:54:23.162Z,17.02
2018-06-13T13:56:51.600Z,17.07
2018-06-13T13:59:20.183Z,17.14
2018-06-13T14:01:48.607Z,17.18
2018-06-13T14:04:17.000Z,17.09
2018-06-13T14:06:45.416Z,17.40
2018-06-13T14:09:13.846Z,17.09
2018-06-13T14:11:42.255Z,17.27
2018-06-13T14:14:10.711Z,17.41
2018-06-13T14:16:39.131Z,17.36
2018-06-13T14:19:07.785Z,17.28
2018-06-13T14:21:36.206Z,17.67
2018-06-13T14:24:04.673Z,17.60
2018-06-13T14:26:33.136Z,17.46
2018-06-13T14:29:01.528Z,17.71
2018-06-13T14:31:29.955Z,17.63
2018-06-13T14:33:58.489Z,17.85
2018-06-13T14:36:26.864Z,17.45
2018-06-13T14:38:55.578Z,17.73
2018-06-13T14:41:23.999Z,17.44
2018-06-13T14:43:52.647Z,17.85
2018-06-13T14:46:21.074Z,17.56
2018-06-13T14:48:49.735Z,17.76
2018-06-13T14:51:18.143Z,17.47
2018-06-13T14:53:46.631Z,17.49
2018-06-13T14:56:20.236Z,17.17
2018-06-13T14:58:48.650Z,17.10
2018-06-13T15:01:17.071Z,17.31
2018-06-13T15:03:45.499Z,17.25
2018-06-13T15:06:13.984Z,17.17
2018-06-13T15:08:42.406Z,17.25
2018-06-13T15:11:10.832Z,17.38
2018-06-13T15:13:39.266Z,17.62
2018-06-13T15:16:07.701Z,17.26
2018-06-13T15:18:36.144Z,17.36
2018-06-13T15:21:04.604Z,17.26
2018-06-13T15:23:33.036Z,17.29
2018-06-13T15:26:01.715Z,17.34
2018-06-13T15:28:30.189Z,17.45
2018-06-13T15:30:58.918Z,17.17
2018-06-13T15:33:27.370Z,17.29
2018-06-13T15:35:56.058Z,17.59
2018-06-13T15:38:24.919Z,17.40
2018-06-13T15:40:53.361Z,17.24
2018-06-13T15:43:21.940Z,18.04
2018-06-13T15:45:50.375Z,18.31
2018-06-13T15:48:18.779Z,17.92
2018-06-13T15:50:47.222Z,17.55
2018-06-13T15:53:15.615Z,17.18
2018-06-13T15:55:44.142Z,17.24
2018-06-13T15:58:12.532Z,17.11
2018-06-13T16:00:41.099Z,17.07
2018-06-13T16:03:09.556Z,17.30
2018-06-13T16:05:38.005Z,17.20
2018-06-13T16:08:06.451Z,17.11
2018-06-13T16:10:34.935Z,17.20
2018-06-13T16:13:03.371Z,17.22
2018-06-13T16:15:31.827Z,17.17
2018-06-13T16:18:00.555Z,17.29
2018-06-13T16:20:29.409Z,17.23
2018-06-13T16:22:57.883Z,17.39
2018-06-13T16:25:26.760Z,17.38
2018-06-13T16:27:55.196Z,17.79
2018-06-13T16:30:23.659Z,17.58
2018-06-13T16:32:52.435Z,17.52
2018-06-13T16:35:20.909Z,17.52
2018-06-13T16:37:49.328Z,17.52
2018-06-13T16:40:17.773Z,17.83
2018-06-13T16:42:46.255Z,17.51
2018-06-13T16:45:14.680Z,17.47
2018-06-13T16:47:43.134Z,17.43
2018-06-13T16:50:22.815Z,17.28
2018-06-13T16:53:11.159Z,17.30
2018-06-13T16:55:39.693Z,17.31
2018-06-13T16:58:08.105Z,17.26
2018-06-13T17:00:36.533Z,17.28
2018-06-13T17:03:04.970Z,17.10
2018-06-13T17:05:33.411Z,17.16
2018-06-13T17:08:01.841Z,17.17
2018-06-13T17:10:30.269Z,17.10
2018-06-13T17:12:58.879Z,17.12
2018-06-13T17:15:27.367Z,17.12
2018-06-13T17:17:55.792Z,16.94
2018-06-13T17:20:24.521Z,17.50
2018-06-13T17:22:53.082Z,17.04
2018-06-13T17:25:21.572Z,17.22
2018-06-13T17:27:50.333Z,16.87
2018-06-13T17:30:18.727Z,16.93
2018-06-13T17:32:47.323Z,16.86
2018-06-13T17:35:15.789Z,16.92
2018-06-13T17:37:44.533Z,17.00
2018-06-13T17:40:13.102Z,17.02
2018-06-13T17:42:41.894Z,16.97
2018-06-13T17:45:10.907Z,17.11
2018-06-13T17:47:39.338Z,17.13
2018-06-13T17:50:07.736Z,17.05
2018-06-13T17:52:36.195Z,17.09
2018-06-13T17:55:05.005Z,16.98
2018-06-13T17:57:33.478Z,17.05
2018-06-13T18:00:02.226Z,17.24
2018-06-13T18:02:30.705Z,17.21
2018-06-13T18:04:59.171Z,17.10
2018-06-13T18:07:27.604Z,17.04
2018-06-13T18:09:56.047Z,17.02
2018-06-13T18:12:24.476Z,17.18
2018-06-13T18:14:53.158Z,16.98
2018-06-13T18:17:21.692Z,16.96
2018-06-13T18:19:50.151Z,16.96
2018-06-13T18:22:18.673Z,16.99
2018-06-13T18:24:47.087Z,17.07
2018-06-13T18:27:15.559Z,17.37
2018-06-13T18:29:44.049Z,17.03
2018-06-13T18:32:12.556Z,16.64
2018-06-13T18:34:41.008Z,16.44
2018-06-13T18:37:09.488Z,16.36
2018-06-13T18:39:37.897Z,16.48
2018-06-13T18:42:06.431Z,16.43
2018-06-13T18:44:35.494Z,16.48
2018-06-13T18:47:04.180Z,16.13
2018-06-13T18:49:32.642Z,16.06
2018-06-13T18:52:01.348Z,16.06
2018-06-13T18:54:30.528Z,16.23
2018-06-13T18:56:58.937Z,16.13
2018-06-13T18:59:27.755Z,16.12
2018-06-13T19:01:56.617Z,16.09
2018-06-13T19:04:25.172Z,16.09
2018-06-13T19:06:53.739Z,16.36
2018-06-13T19:09:22.200Z,16.08
2018-06-13T19:11:50.631Z,16.23
2018-06-13T19:14:19.031Z,16.34
2018-06-13T19:16:47.709Z,16.46
2018-06-13T19:19:16.420Z,16.26
2018-06-13T19:21:44.842Z,16.38
2018-06-13T19:24:13.326Z,16.20
2018-06-13T19:26:41.764Z,16.17
2018-06-13T19:29:10.235Z,16.09
2018-06-13T19:31:38.708Z,16.02
2018-06-13T19:34:07.169Z,16.01
2018-06-13T19:36:35.625Z,16.12
2018-06-13T19:39:06.008Z,16.18
2018-06-13T19:41:34.430Z,15.78
2018-06-13T19:44:03.076Z,15.76
2018-06-13T19:46:31.488Z,15.79
2018-06-13T19:48:59.908Z,15.97
2018-06-13T19:51:28.597Z,15.90
2018-06-13T19:54:02.429Z,15.91
2018-06-13T19:56:31.999Z,15.87
2018-06-13T19:59:00.659Z,15.90
2018-06-13T20:01:29.096Z,15.77
2018-06-13T20:04:02.963Z,15.68
2018-06-13T20:06:31.696Z,15.74
2018-06-13T20:09:00.121Z,15.66
2018-06-13T20:11:28.591Z,15.59
2018-06-13T20:14:02.453Z,15.56
2018-06-13T20:16:47.397Z,15.48
2018-06-13T20:19:21.195Z,15.57
2018-06-13T20:21:49.659Z,15.64
2018-06-13T20:24:18.453Z,15.55
2018-06-13T20:26:52.667Z,15.56
2018-06-13T20:29:26.686Z,15.62
2018-06-13T20:31:55.156Z,15.53
2018-06-13T20:34:23.609Z,15.42
2018-06-13T20:36:52.183Z,15.34
2018-06-13T20:39:21.203Z,15.54
2018-06-13T20:41:50.089Z,15.42
2018-06-13T20:44:18.566Z,15.44
2018-06-13T20:46:47.031Z,15.44
2018-06-13T20:49:15.458Z,15.39
2018-06-13T20:51:43.895Z,15.42
2018-06-13T20:54:12.343Z,15.43
2018-06-13T20:56:40.817Z,15.41
2018-06-13T20:59:09.261Z,15.42
2018-06-13T21:01:37.743Z,15.38
2018-06-13T21:04:06.206Z,15.48
2018-06-13T21:06:34.729Z,15.44
2018-06-13T21:09:03.271Z,15.43
2018-06-13T21:11:31.783Z,15.36
2018-06-13T21:14:00.212Z,15.36
2018-06-13T21:16:28.632Z,15.34
2018-06-13T21:18:57.153Z,15.49
2018-06-13T21:21:25.560Z,15.55
2018-06-13T21:23:53.967Z,15.32
2018-06-13T21:26:22.414Z,15.34
2018-06-13T21:28:50.834Z,15.38
2018-06-13T21:31:19.935Z,15.36
2018-06-13T21:33:48.628Z,15.31
2018-06-13T21:36:17.092Z,15.29
2018-06-13T21:38:45.534Z,15.19
2018-06-13T21:41:13.984Z,15.25
2018-06-13T21:43:42.432Z,15.27
2018-06-13T21:46:10.875Z,15.15
2018-06-13T21:48:39.320Z,15.35
2018-06-13T21:51:07.772Z,15.20
2018-06-13T21:53:36.424Z,15.26
2018-06-13T21:56:04.876Z,15.31
2018-06-13T21:58:33.451Z,15.19
2018-06-13T22:01:01.881Z,15.14
2018-06-13T22:03:30.307Z,15.16
2018-06-13T22:05:58.746Z,15.31
2018-06-13T22:08:27.260Z,15.14
2018-06-13T22:10:55.698Z,15.06
2018-06-13T22:13:24.159Z,15.04
2018-06-13T22:15:52.617Z,15.12
2018-06-13T22:18:21.044Z,15.06
2018-06-13T22:20:49.480Z,15.10
2018-06-13T22:23:17.942Z,15.09
2018-06-13T22:25:46.403Z,15.11
2018-06-13T22:28:15.245Z,15.17
2018-06-13T22:30:43.689Z,15.11
2018-06-13T22:33:12.134Z,15.20
2018-06-13T22:35:40.601Z,14.98
2018-06-13T22:38:09.068Z,14.94
2018-06-13T22:40:37.765Z,14.87
2018-06-13T22:43:06.239Z,14.91
2018-06-13T22:45:34.672Z,14.93
2018-06-13T22:48:03.193Z,14.92
2018-06-13T22:50:31.656Z,14.82
2018-06-13T22:53:00.132Z,14.73
2018-06-13T22:55:28.586Z,14.63
2018-06-13T22:57:57.010Z,14.49
2018-06-13T23:00:36.424Z,14.56
2018-06-13T23:03:04.980Z,14.58
2018-06-13T23:05:33.385Z,14.53
2018-06-13T23:08:01.935Z,14.58
2018-06-13T23:10:30.629Z,14.58
2018-06-13T23:12:59.056Z,14.52
2018-06-13T23:15:27.504Z,14.49
2018-06-13T23:17:55.913Z,14.52
2018-06-13T23:20:24.367Z,14.63
2018-06-13T23:22:53.021Z,14.53
2018-06-13T23:25:21.440Z,14.56
2018-06-13T23:27:49.906Z,14.52
2018-06-13T23:30:18.273Z,14.55
2018-06-13T23:32:47.001Z,14.54
2018-06-13T23:35:15.422Z,14.58
2018-06-13T23:37:43.919Z,14.55
2018-06-13T23:40:12.346Z,14.46
2018-06-13T23:42:40.756Z,14.48
2018-06-13T23:45:09.224Z,14.53
2018-06-13T23:47:37.675Z,14.43
2018-06-13T23:50:06.138Z,14.44
2018-06-13T23:52:34.589Z,14.52
2018-06-13T23:55:03.011Z,14.44
2018-06-13T23:57:31.478Z,14.51
2018-06-13T23:59:59.942Z,14.52
